createdAt,value
2023-01-01T00:01:25.160Z,102252.58
2023-01-01T00:03:56.820Z,102251.38
2023-01-01T00:06:26.609Z,102249.42
2023-01-01T00:09:13.549Z,102249.40
2023-01-01T00:11:42.787Z,102250.16
2023-01-01T00:14:15.140Z,102247.00
2023-01-01T00:16:44.416Z,102248.08
2023-01-01T00:19:13.024Z,102247.81
2023-01-01T00:21:47.437Z,102250.92
2023-01-01T00:24:22.588Z,102253.67
2023-01-01T00:26:51.235Z,102253.52
2023-01-01T00:29:24.039Z,102256.04
2023-01-01T00:31:53.186Z,102255.28
2023-01-01T00:34:21.678Z,102259.31
2023-01-01T00:36:50.325Z,102264.27
2023-01-01T00:39:19.130Z,102264.39
2023-01-01T00:41:47.758Z,102259.10
2023-01-01T00:44:17.201Z,102258.57
2023-01-01T00:46:46.087Z,102264.86
2023-01-01T00:49:14.805Z,102263.00
2023-01-01T00:51:43.355Z,102260.81
2023-01-01T00:54:12.039Z,102260.27
2023-01-01T00:56:41.306Z,102254.59
2023-01-01T00:59:09.941Z,102256.11
2023-01-01T01:01:38.699Z,102256.23
2023-01-01T01:04:09.194Z,102256.59
2023-01-01T01:06:40.189Z,102253.39
2023-01-01T01:09:08.722Z,102254.27
2023-01-01T01:11:37.284Z,102257.47
2023-01-01T01:14:06.007Z,102251.98
2023-01-01T01:16:35.549Z,102253.99
2023-01-01T01:19:06.175Z,102244.36
2023-01-01T01:21:35.016Z,102241.21
2023-01-01T01:24:05.111Z,102244.64
2023-01-01T01:26:35.773Z,102247.73
2023-01-01T01:29:05.014Z,102244.08
2023-01-01T01:31:35.141Z,102244.65
2023-01-01T01:34:04.020Z,102242.70
2023-01-01T01:36:32.679Z,102239.55
2023-01-01T01:39:01.289Z,102235.26
2023-01-01T01:41:30.082Z,102232.14
2023-01-01T01:44:02.232Z,102232.11
2023-01-01T01:46:41.024Z,102232.59
2023-01-01T01:49:22.484Z,102228.85
2023-01-01T01:51:51.240Z,102228.42
2023-01-01T01:54:24.451Z,102226.81
2023-01-01T01:57:01.184Z,102227.14
2023-01-01T01:59:34.317Z,102218.67
2023-01-01T02:02:03.045Z,102214.86
2023-01-01T02:04:32.515Z,102213.70
2023-01-01T02:07:01.324Z,102206.34
2023-01-01T02:09:30.205Z,102198.92
2023-01-01T02:11:59.568Z,102201.88
2023-01-01T02:14:28.115Z,102203.45
2023-01-01T02:17:00.788Z,102206.61
2023-01-01T02:19:36.432Z,102208.11
2023-01-01T02:22:11.971Z,102211.53
2023-01-01T02:25:18.323Z,102215.07
2023-01-01T02:27:59.419Z,102216.46
2023-01-01T02:30:30.162Z,102213.57
2023-01-01T02:33:12.339Z,102208.29
2023-01-01T02:35:53.675Z,102203.68
2023-01-01T02:38:37.265Z,102208.18
2023-01-01T02:41:10.933Z,102212.20
2023-01-01T02:43:40.638Z,102208.41
2023-01-01T02:48:48.363Z,102210.03
2023-01-01T02:51:51.103Z,102209.19
2023-01-01T02:54:19.678Z,102211.58
2023-01-01T02:56:58.450Z,102214.64
2023-01-01T03:00:04.055Z,102211.57
2023-01-01T03:02:53.670Z,102211.23
2023-01-01T03:06:14.958Z,102209.87
2023-01-01T03:09:28.852Z,102213.56
2023-01-01T03:12:25.494Z,102210.73
2023-01-01T03:15:04.784Z,102208.91
2023-01-01T03:18:04.694Z,102211.04
2023-01-01T03:20:37.384Z,102219.63
2023-01-01T03:23:16.541Z,102219.67
2023-01-01T03:25:53.072Z,102219.06
2023-01-01T03:28:30.649Z,102220.23
2023-01-01T03:30:59.774Z,102218.33
2023-01-01T03:33:45.127Z,102218.16
2023-01-01T03:36:19.865Z,102218.91
2023-01-01T03:39:39.088Z,102224.66
2023-01-01T03:42:31.940Z,102224.61
2023-01-01T03:45:34.187Z,102218.66
2023-01-01T03:48:02.869Z,102217.23
2023-01-01T03:51:26.576Z,102211.88
2023-01-01T03:54:05.414Z,102210.42
2023-01-01T03:56:53.099Z,102213.20
2023-01-01T03:59:32.864Z,102212.15
2023-01-01T04:02:02.902Z,102211.39
2023-01-01T04:04:31.918Z,102214.58
2023-01-01T04:07:14.251Z,102213.86
2023-01-01T04:09:51.291Z,102214.01
2023-01-01T04:12:20.447Z,102216.11
2023-01-01T04:14:49.408Z,102221.27
2023-01-01T04:17:18.873Z,102218.75
2023-01-01T04:19:54.673Z,102223.62
2023-01-01T04:22:23.887Z,102225.67
2023-01-01T04:24:52.707Z,102228.39
2023-01-01T04:27:21.257Z,102229.70
2023-01-01T04:29:49.846Z,102228.83
2023-01-01T04:32:18.661Z,102225.73
2023-01-01T04:34:50.977Z,102223.35
2023-01-01T04:37:20.763Z,102218.94
2023-01-01T04:39:50.485Z,102224.30
2023-01-01T04:42:20.183Z,102225.45
2023-01-01T04:44:49.037Z,102232.98
2023-01-01T04:47:17.617Z,102235.55
2023-01-01T04:49:46.372Z,102239.83
2023-01-01T04:52:15.007Z,102242.30
2023-01-01T04:54:43.432Z,102242.23
2023-01-01T04:57:12.350Z,102242.21
2023-01-01T04:59:42.238Z,102244.55
2023-01-01T05:02:11.232Z,102241.72
2023-01-01T05:04:40.128Z,102247.77
2023-01-01T05:07:08.711Z,102250.23
2023-01-01T05:09:37.717Z,102251.29
2023-01-01T05:12:06.966Z,102250.18
2023-01-01T05:14:35.675Z,102248.20
2023-01-01T05:17:04.420Z,102249.19
2023-01-01T05:19:33.127Z,102252.38
2023-01-01T05:22:06.908Z,102255.73
2023-01-01T05:24:39.198Z,102258.54
2023-01-01T05:27:08.858Z,102262.20
2023-01-01T05:29:38.459Z,102266.38
2023-01-01T05:37:02.115Z,102260.38
2023-01-01T05:39:30.855Z,102256.32
2023-01-01T05:41:59.594Z,102261.73
2023-01-01T05:44:28.316Z,102268.12
2023-01-01T05:46:57.608Z,102268.65
2023-01-01T05:49:26.241Z,102275.01
2023-01-01T05:51:55.184Z,102274.44
2023-01-01T05:54:24.096Z,102269.40
2023-01-01T05:56:53.043Z,102267.90
2023-01-01T05:59:21.887Z,102273.39
2023-01-01T06:01:50.834Z,102272.54
2023-01-01T06:04:19.944Z,102270.70
2023-01-01T06:06:48.598Z,102265.01
2023-01-01T06:09:20.994Z,102265.27
2023-01-01T06:11:50.062Z,102265.54
2023-01-01T06:14:18.892Z,102262.72
2023-01-01T06:16:47.741Z,102270.21
2023-01-01T06:19:16.452Z,102275.34
2023-01-01T06:21:45.265Z,102283.06
2023-01-01T06:24:14.122Z,102290.66
2023-01-01T06:26:44.794Z,102292.06
2023-01-01T06:29:13.423Z,102287.56
2023-01-01T06:31:42.067Z,102288.24
2023-01-01T06:34:10.816Z,102292.66
2023-01-01T06:36:39.563Z,102298.28
2023-01-01T06:39:08.952Z,102298.62
2023-01-01T06:41:37.763Z,102295.67
2023-01-01T06:44:06.664Z,102298.02
2023-01-01T06:46:37.076Z,102304.10
2023-01-01T06:49:10.782Z,102315.27
2023-01-01T06:51:42.758Z,102326.58
2023-01-01T06:54:12.132Z,102327.57
2023-01-01T06:56:41.151Z,102327.89
2023-01-01T06:59:09.888Z,102330.46
2023-01-01T07:01:43.975Z,102336.64
2023-01-01T07:04:16.345Z,102343.36
2023-01-01T07:06:44.994Z,102344.90
2023-01-01T07:09:13.677Z,102344.05
2023-01-01T07:11:42.403Z,102351.98
2023-01-01T07:14:11.140Z,102346.98
2023-01-01T07:16:40.087Z,102349.17
2023-01-01T07:19:09.042Z,102352.73
2023-01-01T07:21:48.767Z,102351.89
2023-01-01T07:24:18.379Z,102354.66
2023-01-01T07:26:47.805Z,102355.22
2023-01-01T07:29:16.876Z,102358.91
2023-01-01T07:31:45.955Z,102360.70
2023-01-01T07:34:20.181Z,102365.58
2023-01-01T07:36:49.774Z,102370.06
2023-01-01T07:39:18.740Z,102371.80
2023-01-01T07:41:47.584Z,102376.40
2023-01-01T07:44:16.664Z,102378.05
2023-01-01T07:46:45.670Z,102379.64
2023-01-01T07:49:14.435Z,102383.43
2023-01-01T07:51:43.043Z,102385.10
2023-01-01T07:54:11.742Z,102385.20
2023-01-01T07:56:40.631Z,102383.23
2023-01-01T07:59:09.617Z,102380.02
2023-01-01T08:01:38.791Z,102378.27
2023-01-01T08:04:08.079Z,102382.39
2023-01-01T08:06:38.198Z,102386.87
2023-01-01T08:09:08.264Z,102397.56
2023-01-01T08:11:36.814Z,102401.23
2023-01-01T08:14:08.828Z,102404.43
2023-01-01T08:16:37.881Z,102402.92
2023-01-01T08:19:06.720Z,102400.35
2023-01-01T08:21:35.571Z,102403.49
2023-01-01T08:24:06.312Z,102403.97
2023-01-01T08:26:37.162Z,102398.34
2023-01-01T08:29:08.325Z,102397.72
2023-01-01T08:31:37.090Z,102399.19
2023-01-01T08:34:05.777Z,102395.45
2023-01-01T08:36:34.988Z,102389.65
2023-01-01T08:39:04.349Z,102388.08
2023-01-01T08:41:33.352Z,102391.36
2023-01-01T08:44:02.038Z,102385.31
2023-01-01T08:46:30.745Z,102380.66
2023-01-01T08:48:59.599Z,102381.10
2023-01-01T08:51:28.455Z,102378.02
2023-01-01T08:53:57.081Z,102382.76
2023-01-01T08:56:26.009Z,102384.14
2023-01-01T08:58:58.741Z,102383.36
2023-01-01T09:01:30.913Z,102387.60
2023-01-01T09:03:59.790Z,102387.27
2023-01-01T09:06:28.727Z,102379.86
2023-01-01T09:08:57.348Z,102379.06
2023-01-01T09:11:28.493Z,102374.86
2023-01-01T09:13:57.216Z,102368.20
2023-01-01T09:16:26.176Z,102362.26
2023-01-01T09:18:55.075Z,102358.10
2023-01-01T09:21:23.727Z,102360.81
2023-01-01T09:23:52.556Z,102366.29
2023-01-01T09:26:21.144Z,102369.82
2023-01-01T09:28:49.825Z,102369.30
2023-01-01T09:31:18.792Z,102364.08
2023-01-01T09:33:47.858Z,102354.02
2023-01-01T09:36:30.147Z,102345.92
2023-01-01T09:39:02.984Z,102338.34
2023-01-01T09:41:54.949Z,102334.45
2023-01-01T09:45:03.904Z,102332.85
2023-01-01T09:47:51.768Z,102328.87
2023-01-01T09:50:28.175Z,102328.41
2023-01-01T09:53:01.947Z,102325.28
2023-01-01T09:55:51.069Z,102323.86
2023-01-01T09:58:25.943Z,102327.17
2023-01-01T10:01:06.257Z,102324.80
2023-01-01T10:03:43.398Z,102317.04
2023-01-01T10:06:30.372Z,102315.66
2023-01-01T10:09:20.816Z,102309.54
2023-01-01T10:12:21.358Z,102311.73
2023-01-01T10:14:59.747Z,102314.11
2023-01-01T10:17:42.253Z,102318.14
2023-01-01T10:20:39.633Z,102319.35
2023-01-01T10:23:19.144Z,102316.63
2023-01-01T10:25:48.059Z,102312.87
2023-01-01T10:28:26.726Z,102309.55
2023-01-01T10:31:18.937Z,102306.81
2023-01-01T10:33:48.905Z,102306.88
2023-01-01T10:36:20.174Z,102304.48
2023-01-01T10:38:50.618Z,102297.14
2023-01-01T10:41:27.498Z,102297.92
2023-01-01T10:43:56.863Z,102296.63
2023-01-01T10:46:31.877Z,102290.52
2023-01-01T10:49:16.234Z,102285.01
2023-01-01T10:51:50.823Z,102284.54
2023-01-01T10:54:37.529Z,102283.61
2023-01-01T10:57:36.127Z,102285.25
2023-01-01T11:00:29.983Z,102281.19
2023-01-01T11:03:22.163Z,102274.96
2023-01-01T11:06:21.388Z,102273.54
2023-01-01T11:08:59.053Z,102271.44
2023-01-01T11:11:40.773Z,102267.05
2023-01-01T11:14:32.659Z,102259.77
2023-01-01T11:17:01.746Z,102260.13
2023-01-01T11:19:39.036Z,102259.03
2023-01-01T11:22:08.137Z,102255.58
2023-01-01T11:24:40.852Z,102259.56
2023-01-01T11:27:25.695Z,102258.02
2023-01-01T11:30:20.923Z,102255.07
2023-01-01T11:32:55.837Z,102255.40
2023-01-01T11:35:29.285Z,102251.58
2023-01-01T11:37:59.080Z,102250.98
2023-01-01T11:40:37.793Z,102249.65
2023-01-01T11:43:07.909Z,102247.86
2023-01-01T11:45:43.861Z,102247.36
2023-01-01T11:48:28.702Z,102245.55
2023-01-01T11:51:09.131Z,102246.52
2023-01-01T11:53:42.207Z,102245.43
2023-01-01T11:56:21.275Z,102244.80
2023-01-01T11:59:00.688Z,102242.47
2023-01-01T12:01:49.485Z,102239.11
2023-01-01T12:04:51.018Z,102240.36
2023-01-01T12:07:31.683Z,102234.00
2023-01-01T12:10:27.797Z,102236.57
2023-01-01T12:13:09.116Z,102226.54
2023-01-01T12:16:16.419Z,102224.95
2023-01-01T12:19:31.263Z,102228.45
2023-01-01T12:22:01.333Z,102226.23
2023-01-01T12:24:34.886Z,102225.92
2023-01-01T12:27:18.206Z,102229.05
2023-01-01T12:30:04.784Z,102226.30
2023-01-01T12:33:22.221Z,102226.33
2023-01-01T12:36:01.979Z,102226.14
2023-01-01T12:38:53.964Z,102230.11
2023-01-01T12:42:17.751Z,102234.78
2023-01-01T12:45:11.389Z,102239.99
2023-01-01T12:48:13.825Z,102241.11
2023-01-01T12:50:54.982Z,102239.52
2023-01-01T12:54:10.344Z,102238.23
2023-01-01T12:57:40.012Z,102239.31
2023-01-01T13:00:16.518Z,102239.44
2023-01-01T13:03:05.023Z,102239.83
2023-01-01T13:05:43.931Z,102242.52
2023-01-01T13:08:12.434Z,102245.21
2023-01-01T13:10:48.709Z,102244.86
2023-01-01T13:13:22.348Z,102252.67
2023-01-01T13:15:56.957Z,102257.15
2023-01-01T13:18:33.456Z,102261.05
2023-01-01T13:21:22.328Z,102255.06
2023-01-01T13:23:52.307Z,102255.01
2023-01-01T13:26:22.096Z,102252.03
2023-01-01T13:29:00.136Z,102250.13
2023-01-01T13:31:58.207Z,102248.55
2023-01-01T13:35:00.263Z,102245.16
2023-01-01T13:37:32.078Z,102248.52
2023-01-01T13:40:25.770Z,102247.92
2023-01-01T13:43:00.681Z,102247.31
2023-01-01T13:46:11.158Z,102252.79
2023-01-01T13:48:35.573Z,102247.79
2023-01-01T13:52:03.961Z,102246.28
2023-01-01T13:54:40.417Z,102245.52
2023-01-01T13:57:27.208Z,102245.95
2023-01-01T13:59:56.277Z,102246.55
2023-01-01T14:02:30.627Z,102248.10
2023-01-01T14:05:22.823Z,102250.80
2023-01-01T14:07:55.841Z,102253.34
2023-01-01T14:10:35.512Z,102252.92
2023-01-01T14:13:07.569Z,102253.60
2023-01-01T14:15:45.628Z,102250.90
2023-01-01T14:18:17.385Z,102249.77
2023-01-01T14:20:50.448Z,102248.98
2023-01-01T14:23:43.749Z,102244.33
2023-01-01T14:26:22.291Z,102240.70
2023-01-01T14:29:06.950Z,102239.19
2023-01-01T14:31:47.318Z,102242.21
2023-01-01T14:34:32.633Z,102239.95
2023-01-01T14:37:05.155Z,102243.67
2023-01-01T14:39:37.229Z,102242.60
2023-01-01T14:42:12.733Z,102240.91
2023-01-01T14:44:44.638Z,102244.20
2023-01-01T14:47:35.421Z,102246.70
2023-01-01T14:50:26.198Z,102248.55
2023-01-01T14:53:05.290Z,102246.75
2023-01-01T14:55:44.394Z,102251.14
2023-01-01T14:58:25.957Z,102253.81
2023-01-01T15:00:54.776Z,102252.54
2023-01-01T15:03:23.921Z,102250.95
2023-01-01T15:06:04.440Z,102249.23
2023-01-01T15:08:34.500Z,102253.71
2023-01-01T15:11:03.695Z,102256.61
2023-01-01T15:13:32.353Z,102256.10
2023-01-01T15:16:36.344Z,102252.95
2023-01-01T15:19:19.691Z,102252.81
2023-01-01T15:21:48.440Z,102255.53
2023-01-01T15:24:22.336Z,102255.02
2023-01-01T15:27:00.254Z,102253.08
2023-01-01T15:29:50.922Z,102250.73
2023-01-01T15:32:35.660Z,102251.34
2023-01-01T15:35:27.822Z,102252.35
2023-01-01T15:38:13.016Z,102255.84
2023-01-01T15:40:47.902Z,102260.71
2023-01-01T15:43:29.903Z,102265.19
2023-01-01T15:46:20.707Z,102270.88
2023-01-01T15:48:53.139Z,102274.14
2023-01-01T15:51:23.621Z,102272.27
2023-01-01T15:53:57.724Z,102269.91
2023-01-01T15:56:32.076Z,102267.71
2023-01-01T15:59:07.123Z,102264.86
2023-01-01T16:01:40.211Z,102265.54
2023-01-01T16:04:14.595Z,102263.05
2023-01-01T16:06:48.665Z,102269.20
2023-01-01T16:09:20.532Z,102271.62
2023-01-01T16:11:55.260Z,102274.28
2023-01-01T16:14:24.311Z,102275.41
2023-01-01T16:17:01.127Z,102274.16
2023-01-01T16:19:32.155Z,102270.48
2023-01-01T16:22:01.054Z,102274.50
2023-01-01T16:24:29.729Z,102274.94
2023-01-01T16:26:59.166Z,102277.73
2023-01-01T16:29:27.930Z,102274.75
2023-01-01T16:31:56.571Z,102281.02
2023-01-01T16:34:25.330Z,102285.73
2023-01-01T16:36:54.103Z,102295.15
2023-01-01T16:39:22.770Z,102294.80
2023-01-01T16:41:51.664Z,102297.45
2023-01-01T16:44:20.234Z,102300.52
2023-01-01T16:46:48.891Z,102304.14
2023-01-01T16:49:17.614Z,102301.13
2023-01-01T16:51:46.600Z,102300.91
2023-01-01T16:54:15.160Z,102303.46
2023-01-01T16:56:43.748Z,102301.91
2023-01-01T16:59:12.408Z,102301.73
2023-01-01T17:01:41.514Z,102304.94
2023-01-01T17:04:13.517Z,102304.44
2023-01-01T17:06:42.623Z,102306.52
2023-01-01T17:09:11.478Z,102307.20
2023-01-01T17:11:40.303Z,102308.98
2023-01-01T17:14:10.632Z,102309.23
2023-01-01T17:16:40.380Z,102311.70
2023-01-01T17:19:15.163Z,102311.34
2023-01-01T17:21:48.051Z,102311.10
2023-01-01T17:24:19.846Z,102308.04
2023-01-01T17:26:54.623Z,102309.32
2023-01-01T17:29:24.276Z,102310.93
2023-01-01T17:31:53.386Z,102315.44
2023-01-01T17:34:21.998Z,102315.43
2023-01-01T17:36:50.577Z,102315.65
2023-01-01T17:39:19.223Z,102319.61
2023-01-01T17:41:49.136Z,102323.99
2023-01-01T17:44:18.114Z,102326.71
2023-01-01T17:46:46.935Z,102325.95
2023-01-01T17:49:16.072Z,102329.24
2023-01-01T17:51:44.623Z,102328.70
2023-01-01T17:54:13.996Z,102329.90
2023-01-01T17:56:43.251Z,102330.49
2023-01-01T17:59:12.045Z,102331.38
2023-01-01T18:01:40.947Z,102330.77
2023-01-01T18:04:10.618Z,102334.61
2023-01-01T18:06:43.158Z,102336.77
2023-01-01T18:09:14.744Z,102340.94
2023-01-01T18:11:44.784Z,102337.77
2023-01-01T18:14:16.339Z,102341.67
2023-01-01T18:16:48.310Z,102343.96
2023-01-01T18:19:17.001Z,102343.08
2023-01-01T18:21:45.684Z,102344.38
2023-01-01T18:24:15.989Z,102343.52
2023-01-01T18:26:44.574Z,102342.59
2023-01-01T18:29:13.313Z,102342.86
2023-01-01T18:31:42.180Z,102345.22
2023-01-01T18:34:11.418Z,102353.46
2023-01-01T18:36:40.289Z,102359.12
2023-01-01T18:39:22.386Z,102361.08
2023-01-01T18:42:06.739Z,102362.99
2023-01-01T18:44:35.415Z,102366.46
2023-01-01T18:47:06.979Z,102371.46
2023-01-01T18:49:38.028Z,102371.90
2023-01-01T18:52:16.603Z,102368.30
2023-01-01T18:54:46.011Z,102362.73
2023-01-01T18:57:26.981Z,102355.70
2023-01-01T19:00:16.302Z,102347.10
2023-01-01T19:03:37.535Z,102346.10
2023-01-01T19:06:29.963Z,102351.21
2023-01-01T19:09:21.114Z,102355.20
2023-01-01T19:11:51.911Z,102354.99
2023-01-01T19:14:23.631Z,102357.78
2023-01-01T19:16:56.790Z,102358.63
2023-01-01T19:19:28.130Z,102359.17
2023-01-01T19:22:16.132Z,102365.95
2023-01-01T19:24:45.332Z,102367.88
2023-01-01T19:27:19.195Z,102367.98
2023-01-01T19:29:49.917Z,102365.00
2023-01-01T19:32:18.716Z,102363.23
2023-01-01T19:34:47.319Z,102366.88
2023-01-01T19:37:15.977Z,102364.80
2023-01-01T19:39:44.767Z,102363.55
2023-01-01T19:42:15.629Z,102365.88
2023-01-01T19:44:44.524Z,102362.80
2023-01-01T19:47:13.343Z,102357.90
2023-01-01T19:49:42.078Z,102353.53
2023-01-01T19:52:11.136Z,102349.28
2023-01-01T19:54:40.193Z,102349.45
2023-01-01T19:57:09.175Z,102341.11
2023-01-01T19:59:38.212Z,102342.97
2023-01-01T20:02:43.863Z,102343.41
2023-01-01T20:04:56.801Z,102341.81
2023-01-01T20:07:25.900Z,102338.55
2023-01-01T20:09:56.237Z,102338.90
2023-01-01T20:12:24.924Z,102337.33
2023-01-01T20:14:54.037Z,102331.08
2023-01-01T20:17:23.229Z,102325.65
2023-01-01T20:19:52.042Z,102320.41
2023-01-01T20:22:22.426Z,102318.29
2023-01-01T20:24:51.554Z,102312.98
2023-01-01T20:27:27.033Z,102319.17
2023-01-01T20:29:57.900Z,102318.95
2023-01-01T20:32:28.416Z,102321.83
2023-01-01T20:34:57.440Z,102323.27
2023-01-01T20:37:38.111Z,102328.52
2023-01-01T20:40:10.816Z,102328.77
2023-01-01T20:42:39.498Z,102339.41
2023-01-01T20:45:09.486Z,102349.38
2023-01-01T20:47:38.591Z,102354.36
2023-01-01T20:50:07.486Z,102360.15
2023-01-01T20:52:36.187Z,102362.17
2023-01-01T20:55:05.824Z,102362.06
2023-01-01T20:57:34.611Z,102364.34
2023-01-01T21:00:04.037Z,102364.77
2023-01-01T21:02:32.977Z,102362.16
2023-01-01T21:05:02.422Z,102361.05
2023-01-01T21:07:31.219Z,102362.57
2023-01-01T21:09:59.928Z,102361.83
2023-01-01T21:12:28.697Z,102354.77
2023-01-01T21:14:58.838Z,102362.39
2023-01-01T21:17:29.103Z,102358.95
2023-01-01T21:19:58.844Z,102359.05
2023-01-01T21:22:28.037Z,102357.83
2023-01-01T21:25:16.905Z,102354.21
2023-01-01T21:27:46.232Z,102359.64
2023-01-01T21:30:15.516Z,102367.80
2023-01-01T21:32:47.090Z,102368.73
2023-01-01T21:35:23.078Z,102369.79
2023-01-01T21:37:58.715Z,102365.27
2023-01-01T21:40:53.814Z,102363.27
2023-01-01T21:43:35.851Z,102362.88
2023-01-01T21:46:07.555Z,102359.14
2023-01-01T21:48:57.708Z,102361.08
2023-01-01T21:51:33.177Z,102358.54
2023-01-01T21:54:11.006Z,102357.63
2023-01-01T21:56:42.669Z,102359.77
2023-01-01T21:59:26.528Z,102353.52
2023-01-01T22:02:33.050Z,102352.06
2023-01-01T22:05:29.571Z,102351.72
2023-01-01T22:07:59.523Z,102345.52
2023-01-01T22:10:37.600Z,102344.62
2023-01-01T22:13:15.378Z,102343.48
2023-01-01T22:15:44.930Z,102340.91
2023-01-01T22:18:26.215Z,102336.36
2023-01-01T22:20:54.945Z,102335.40
2023-01-01T22:23:35.475Z,102334.45
2023-01-01T22:26:15.008Z,102331.76
2023-01-01T22:28:45.555Z,102334.44
2023-01-01T22:31:21.618Z,102329.10
2023-01-01T22:33:52.292Z,102324.45
2023-01-01T22:36:23.949Z,102320.02
2023-01-01T22:39:01.743Z,102313.95
2023-01-01T22:41:30.423Z,102313.52
2023-01-01T22:44:03.538Z,102317.89
2023-01-01T22:46:39.949Z,102315.48
2023-01-01T22:49:20.989Z,102317.59
2023-01-01T22:51:54.772Z,102315.85
2023-01-01T22:54:24.127Z,102316.50
2023-01-01T22:56:52.902Z,102310.36
2023-01-01T22:59:21.575Z,102308.46
2023-01-01T23:01:50.301Z,102309.33
2023-01-01T23:04:19.252Z,102309.28
2023-01-01T23:06:48.254Z,102303.73
2023-01-01T23:09:16.885Z,102300.81
2023-01-01T23:11:45.704Z,102308.67
2023-01-01T23:14:58.356Z,102308.46
2023-01-01T23:17:26.938Z,102311.54
2023-01-01T23:19:58.566Z,102315.66
2023-01-01T23:22:29.929Z,102321.52
2023-01-01T23:24:58.243Z,102325.02
2023-01-01T23:27:27.700Z,102324.41
2023-01-01T23:29:56.802Z,102324.13
2023-01-01T23:32:26.026Z,102322.02
2023-01-01T23:34:55.133Z,102320.24
2023-01-01T23:37:24.996Z,102318.05
2023-01-01T23:39:53.637Z,102314.34
2023-01-01T23:42:22.307Z,102307.67
2023-01-01T23:44:51.008Z,102309.00
2023-01-01T23:47:19.614Z,102311.86
2023-01-01T23:49:48.370Z,102312.83
2023-01-01T23:52:17.046Z,102314.09
2023-01-01T23:54:45.625Z,102308.50
2023-01-01T23:57:14.314Z,102307.86
2023-01-01T23:59:42.976Z,102306.09
